Time;durP1;ratioP1;P1;durP2;ratioP2;P2;SDS_P1;SDS_P2;PMS_P1;PMS_P2;Temp;Humidity;BMP_temperature;BMP_pressure;BME280_temperature;BME280_humidity;BME280_pressure;Samples;Min_cycle;Max_cycle;Signal;HPM_P1;HPM_P2
2022/01/12 00:01:04;;;;;;;28.25;10.18;;;;;;;1.44;51.86;99456.84;4490039;32;20220;-79
2022/01/12 00:03:33;;;;;;;29.42;10.20;;;;;;;1.90;51.36;99457.53;4490318;32;20105;-79
2022/01/12 00:06:02;;;;;;;26.10;10.43;;;;;;;1.86;51.18;99456.62;4489954;32;20160;-79
2022/01/12 00:08:31;;;;;;;28.20;11.40;;;;;;;3.10;47.14;99466.66;4490098;32;20555;-79
2022/01/12 00:11:02;;;;;;;27.62;10.90;;;;;;;3.43;45.75;99467.78;4489840;32;20068;-79
2022/01/12 00:13:29;;;;;;;30.17;10.73;;;;;;;2.62;47.04;99470.38;4490385;32;20167;-79
2022/01/12 00:15:57;;;;;;;28.02;10.00;;;;;;;2.93;46.58;99473.25;4489866;32;20101;-79
2022/01/12 00:18:24;;;;;;;27.58;10.70;;;;;;;3.12;46.00;99475.16;4490142;32;20124;-79
2022/01/12 00:20:51;;;;;;;28.42;10.60;;;;;;;3.12;46.19;99476.84;4489885;32;20164;-79
2022/01/12 00:23:19;;;;;;;30.50;11.90;;;;;;;2.88;46.56;99480.00;4489642;32;20148;-79
2022/01/12 00:26:11;;;;;;;24.35;10.77;;;;;;;2.72;48.01;99490.87;4489533;32;20823;-79
2022/01/12 00:34:11;;;;;;;31.00;11.43;;;;;;;3.44;45.35;99489.91;4489817;32;20108;-79
2022/01/12 00:36:38;;;;;;;;;;;;;;;2.94;46.12;99489.41;4489622;32;20630;-79
2022/01/12 00:39:07;;;;;;;32.05;11.68;;;;;;;3.08;45.73;99486.16;4489535;32;19978;-79
2022/01/12 00:41:36;;;;;;;29.50;10.50;;;;;;;3.48;44.67;99491.63;4476002;32;20751;-79
2022/01/12 00:44:07;;;;;;;27.08;9.98;;;;;;;3.30;44.97;99494.03;4474756;32;20167;-80
2022/01/12 00:46:35;;;;;;;32.92;11.20;;;;;;;2.76;46.50;99493.44;4486809;32;20080;-79
2022/01/12 00:49:02;;;;;;;26.95;10.77;;;;;;;2.90;46.45;99491.09;4485971;32;20148;-79
2022/01/12 00:51:33;;;;;;;29.85;10.55;;;;;;;2.68;47.14;99506.97;4486270;32;20164;-79
2022/01/12 00:54:02;;;;;;;26.25;10.40;;;;;;;3.16;45.77;99499.84;4486402;32;20097;-79
2022/01/12 00:56:29;;;;;;;29.10;10.85;;;;;;;3.22;45.57;99498.22;4486056;32;20084;-78
2022/01/12 00:58:56;;;;;;;30.05;11.20;;;;;;;2.86;46.19;99491.88;4486035;32;20084;-79
2022/01/12 01:01:23;;;;;;;32.30;11.68;;;;;;;3.36;45.08;99509.38;4486073;32;20141;-78
2022/01/12 01:03:51;;;;;;;32.55;11.80;;;;;;;3.07;45.68;99507.41;4485808;32;20124;-79
2022/01/12 01:06:19;;;;;;;31.27;11.55;;;;;;;3.27;45.10;99507.59;4486077;32;20134;-79
2022/01/12 01:08:50;;;;;;;32.33;11.15;;;;;;;2.82;47.08;99507.97;4471809;32;20102;-79
2022/01/12 01:11:18;;;;;;;31.85;11.93;;;;;;;2.21;48.16;99507.19;4471776;32;20501;-79
2022/01/12 01:13:57;;;;;;;32.55;11.60;;;;;;;1.43;51.53;99511.06;4486225;32;20140;-79
2022/01/12 01:27:13;;;;;;;36.88;11.95;;;;;;;2.40;47.99;99496.41;4488344;32;20506;-79
2022/01/12 01:29:40;;;;;;;29.30;12.25;;;;;;;2.96;46.13;99501.31;4493169;32;20072;-79
2022/01/12 01:32:08;;;;;;;31.52;12.40;;;;;;;2.16;48.12;99503.75;4494400;32;20160;-78
2022/01/12 01:34:42;;;;;;;31.15;12.50;;;;;;;1.42;49.92;99497.50;4492408;32;20096;-79
2022/01/12 01:37:10;;;;;;;32.25;12.05;;;;;;;1.68;49.83;99500.47;4491606;32;20171;-79
2022/01/12 01:39:37;;;;;;;32.30;12.63;;;;;;;2.47;47.79;99508.41;4491203;32;20440;-78
2022/01/12 01:42:14;;;;;;;30.02;11.35;;;;;;;2.10;48.37;99501.09;4491204;32;20105;-79
2022/01/12 01:55:30;;;;;;;28.15;11.75;;;;;;;0.96;53.34;99506.00;4489586;32;20120;-79
2022/01/12 01:57:57;;;;;;;33.20;13.23;;;;;;;1.88;50.21;99507.56;4489518;32;20784;-79
2022/01/12 02:00:26;;;;;;;33.90;12.32;;;;;;;1.66;51.46;99504.69;4489804;32;20077;-79
2022/01/12 02:02:56;;;;;;;35.92;13.23;;;;;;;2.11;49.74;99506.19;4489352;32;20151;-79
2022/01/12 02:05:24;;;;;;;34.95;13.20;;;;;;;2.00;49.78;99512.81;4489780;32;20091;-79
2022/01/12 02:07:51;;;;;;;30.17;11.52;;;;;;;1.73;50.65;99524.31;4490267;32;20415;-79
2022/01/12 02:10:18;;;;;;;;;;;;;;;1.27;51.85;99515.03;4490988;32;20080;-79
2022/01/12 02:12:46;;;;;;;36.22;11.63;;;;;;;1.19;52.81;99513.19;4491201;32;20349;-79
2022/01/12 02:15:25;;;;;;;32.30;12.35;;;;;;;1.42;51.81;99514.44;4490371;32;20088;-79
2022/01/12 02:39:43;;;;;;;36.58;13.73;;;;;;;1.82;50.39;99526.16;4490697;32;20117;-79
2022/01/12 02:40:05;;;;;;;36.95;13.13;;;;;;;1.26;52.19;99523.47;4479108;32;20092;-79
2022/01/12 02:42:32;;;;;;;36.53;13.50;;;;;;;1.23;52.42;99515.81;4489416;32;20110;-79
2022/01/12 02:50:45;;;;;;;35.30;12.60;;;;;;;0.14;56.59;99527.16;4489032;32;20438;-79
2022/01/12 02:55:59;;;;;;;32.70;11.95;;;;;;;-0.36;58.54;99524.28;4490051;32;20105;-79
2022/01/12 02:58:26;;;;;;;32.88;12.65;;;;;;;-0.80;59.27;99520.66;4488459;32;20112;-79
2022/01/12 03:03:27;;;;;;;38.15;13.27;;;;;;;0.96;53.72;99520.37;4487919;32;20128;-79
2022/01/12 03:05:59;;;;;;;32.63;12.13;;;;;;;1.03;53.62;99517.97;4488495;32;20156;-79
2022/01/12 03:08:27;;;;;;;37.55;12.88;;;;;;;1.76;50.92;99515.00;4488269;32;20082;-79
2022/01/12 03:10:55;;;;;;;39.28;13.30;;;;;;;2.08;49.22;99524.00;4487875;32;20162;-79
2022/01/12 03:13:22;;;;;;;35.15;12.95;;;;;;;1.23;51.43;99525.97;4488191;32;20147;-79
2022/01/12 03:15:49;;;;;;;35.25;12.93;;;;;;;1.58;51.04;99528.28;4488485;32;20144;-79
2022/01/12 03:18:16;;;;;;;32.38;11.73;;;;;;;1.94;50.41;99522.94;4488363;32;20127;-79
2022/01/12 03:20:45;;;;;;;;;;;;;;;1.61;50.22;99534.28;4487852;32;20080;-79
2022/01/12 03:23:16;;;;;;;31.92;11.55;;;;;;;1.39;51.43;99537.31;4487648;32;19979;-79
2022/01/12 03:25:43;;;;;;;34.75;12.75;;;;;;;1.87;50.10;99529.59;4487007;32;20140;-79
2022/01/12 03:28:10;;;;;;;34.70;12.73;;;;;;;0.36;54.69;99533.56;4487375;32;20164;-79
2022/01/12 03:30:56;;;;;;;35.22;12.43;;;;;;;1.14;53.34;99534.28;4473133;32;20102;-79
2022/01/12 03:39:01;;;;;;;32.15;12.27;;;;;;;0.91;53.77;99538.09;4474573;32;20092;-78
2022/01/12 03:41:30;;;;;;;35.28;12.15;;;;;;;0.74;54.14;99542.81;4487277;32;20151;-78
2022/01/12 03:43:59;;;;;;;32.75;12.63;;;;;;;0.73;53.79;99530.09;4487268;32;20461;-78
2022/01/12 03:46:35;;;;;;;35.30;12.93;;;;;;;1.19;52.64;99524.22;4487004;32;20150;-78
2022/01/12 03:49:03;;;;;;;39.67;13.50;;;;;;;1.09;52.46;99532.50;4487241;32;20100;-78
2022/01/12 03:51:31;;;;;;;32.78;10.90;;;;;;;0.79;53.40;99542.94;4486848;32;20159;-78
2022/01/12 03:53:58;;;;;;;39.13;13.25;;;;;;;1.52;51.63;99539.22;4487214;32;20127;-78
2022/01/12 03:56:24;;;;;;;;;;;;;;;0.97;53.30;99542.44;4487604;32;20097;-78
2022/01/12 03:58:51;;;;;;;32.67;12.05;;;;;;;1.65;51.26;99533.50;4486775;32;19968;-78
2022/01/12 04:01:18;;;;;;;;;;;;;;;1.61;51.38;99541.94;4487267;32;20106;-79
2022/01/12 04:03:57;;;;;;;28.55;10.60;;;;;;;1.81;50.38;99543.91;4487130;32;19968;-79
2022/01/12 04:09:21;;;;;;;33.03;12.30;;;;;;;1.39;51.90;99548.34;4486903;32;20100;-78
2022/01/12 04:11:48;;;;;;;28.67;11.00;;;;;;;0.41;54.71;99539.59;4486878;32;20143;-78
2022/01/12 04:14:15;;;;;;;36.05;12.32;;;;;;;-0.11;56.94;99546.88;4486535;32;20108;-78
2022/01/12 04:16:42;;;;;;;36.13;12.40;;;;;;;0.18;55.98;99547.56;4486813;32;20438;-78
2022/01/12 04:19:09;;;;;;;35.60;13.70;;;;;;;-0.50;57.78;99541.72;4472599;32;20126;-78
2022/01/12 04:21:42;;;;;;;;;;;;;;;-0.28;57.02;99540.56;4486734;32;20175;-79
2022/01/12 04:24:09;;;;;;;32.17;12.50;;;;;;;0.77;53.88;99537.81;4486953;32;20012;-79
2022/01/12 04:26:36;;;;;;;33.60;13.15;;;;;;;0.24;54.97;99539.22;4471962;32;20168;-79
2022/01/12 04:29:04;;;;;;;35.00;12.20;;;;;;;-0.78;58.37;99542.66;4472315;32;20172;-79
2022/01/12 04:31:31;;;;;;;33.55;12.90;;;;;;;-0.20;57.79;99548.38;4486598;32;20505;-79
2022/01/12 04:33:58;;;;;;;41.40;13.85;;;;;;;0.70;53.39;99546.13;4486221;32;20099;-79
2022/01/12 04:36:25;;;;;;;;;;;;;;;0.78;53.87;99546.31;4486891;32;20143;-79
2022/01/12 04:38:52;;;;;;;36.40;12.35;;;;;;;0.42;53.67;99539.62;4486686;32;20007;-79
2022/01/12 04:41:19;;;;;;;34.40;12.73;;;;;;;0.72;53.81;99544.47;4486150;32;20140;-79
2022/01/12 04:43:47;;;;;;;35.13;13.82;;;;;;;0.40;54.28;99535.34;4486464;32;20092;-79
2022/01/12 04:51:10;;;;;;;38.53;13.60;;;;;;;1.12;52.08;99550.34;4487487;32;20167;-79
2022/01/12 04:53:37;;;;;;;39.65;13.52;;;;;;;1.72;50.40;99549.72;4490081;32;20144;-79
2022/01/12 04:56:04;;;;;;;;;;;;;;;1.99;48.85;99537.44;4489794;32;20089;-79
2022/01/12 04:58:31;;;;;;;34.75;12.52;;;;;;;1.85;48.97;99541.47;4493526;32;20035;-79
2022/01/12 05:01:05;;;;;;;;;;;;;;;2.25;47.46;99545.47;4494096;32;20147;-79
2022/01/12 05:06:46;;;;;;;38.85;13.13;;;;;;;1.22;49.03;99542.06;4477569;32;20076;-78
2022/01/12 05:09:15;;;;;;;49.67;14.40;;;;;;;0.68;51.40;99550.34;4488598;32;20454;-79
2022/01/12 05:14:36;;;;;;;38.67;13.88;;;;;;;0.26;53.29;99528.28;4490905;32;20052;-79
2022/01/12 05:17:03;;;;;;;37.67;14.57;;;;;;;-0.51;56.14;99536.59;4490438;32;20067;-79
2022/01/12 05:19:30;;;;;;;42.55;14.52;;;;;;;0.21;55.50;99546.75;4486240;32;151395;-79
2022/01/12 05:21:57;;;;;;;;;;;;;;;0.28;55.03;99548.63;4491462;32;20085;-79
2022/01/12 05:24:24;;;;;;;40.67;13.50;;;;;;;0.61;53.68;99542.53;4490853;31;19952;-79
2022/01/12 05:26:51;;;;;;;;;;;;;;;0.90;52.79;99543.16;4491701;32;20092;-79
2022/01/12 05:29:18;;;;;;;41.75;14.18;;;;;;;1.02;52.09;99546.78;4491145;32;20019;-78
2022/01/12 05:31:45;;;;;;;46.50;14.50;;;;;;;0.49;53.08;99544.00;4490449;32;20151;-78
2022/01/12 05:34:12;;;;;;;40.83;15.45;;;;;;;0.39;53.45;99533.63;4491309;32;20148;-79
2022/01/12 05:36:38;;;;;;;;;;;;;;;0.04;54.28;99543.00;4491365;32;20108;-79
2022/01/12 05:39:05;;;;;;;35.22;12.93;;;;;;;0.19;54.13;99543.34;4491019;32;20480;-79
2022/01/12 05:41:32;;;;;;;;;;;;;;;0.43;52.86;99535.41;4491439;32;20446;-78
2022/01/12 05:43:59;;;;;;;42.05;14.80;;;;;;;-0.16;54.53;99540.84;4476475;32;20008;-78
2022/01/12 05:46:27;;;;;;;38.03;12.60;;;;;;;-0.36;54.03;99547.97;4490971;32;20053;-79
2022/01/12 05:51:44;;;;;;;40.35;14.27;;;;;;;0.77;52.11;99547.12;4490280;32;20469;-79
2022/01/12 05:54:11;;;;;;;37.53;12.93;;;;;;;1.26;50.70;99545.50;4490755;32;20159;-79
2022/01/12 05:56:38;;;;;;;43.97;15.18;;;;;;;1.68;48.86;99553.91;4490865;32;20115;-79
2022/01/12 05:59:04;;;;;;;;;;;;;;;0.90;50.22;99544.00;4490866;32;20092;-79
2022/01/12 06:01:31;;;;;;;37.45;13.15;;;;;;;1.32;49.88;99554.13;4490858;32;19986;-79
2022/01/12 06:03:58;;;;;;;36.55;13.57;;;;;;;0.92;50.35;99555.03;4491317;32;20450;-79
2022/01/12 06:06:25;;;;;;;;;;;;;;;0.67;51.11;99551.16;4490969;32;20107;-79
2022/01/12 06:08:53;;;;;;;45.58;15.32;;;;;;;0.98;49.93;99557.72;4491080;32;20319;-79
2022/01/12 06:11:22;;;;;;;36.58;12.50;;;;;;;1.55;49.13;99564.69;4490865;32;20070;-79
2022/01/12 06:13:51;;;;;;;42.22;14.30;;;;;;;2.07;47.74;99564.72;4490303;32;20088;-79
2022/01/12 06:16:18;;;;;;;38.25;13.88;;;;;;;1.21;50.06;99578.50;4476150;32;20161;-79
2022/01/12 06:18:46;;;;;;;40.95;15.98;;;;;;;1.05;50.26;99579.00;4489618;32;20156;-78
2022/01/12 06:21:12;;;;;;;;;;;;;;;0.88;51.27;99580.38;4489592;32;20151;-79
2022/01/12 06:23:39;;;;;;;35.63;12.82;;;;;;;1.56;49.12;99584.22;4475295;32;19960;-79
2022/01/12 06:26:06;;;;;;;;;;;;;;;1.43;49.47;99582.28;4489095;32;20096;-79
2022/01/12 06:31:13;;;;;;;;;;;;;;;-1.11;58.73;99594.97;4489075;32;20497;-79
2022/01/12 06:33:46;;;;;;;37.28;13.00;;;;;;;-0.33;56.18;99597.91;4488737;32;19976;-79
2022/01/12 06:36:16;;;;;;;38.70;13.40;;;;;;;0.43;53.18;99604.84;4488606;32;20087;-79
2022/01/12 06:38:44;;;;;;;39.00;13.00;;;;;;;0.35;53.27;99603.81;4488443;32;20144;-79
2022/01/12 06:41:12;;;;;;;35.35;13.40;;;;;;;0.40;54.10;99603.88;4473968;32;20104;-79
2022/01/12 06:43:39;;;;;;;39.13;13.30;;;;;;;1.25;51.54;99612.47;4474456;32;20087;-79
2022/01/12 06:46:07;;;;;;;39.53;14.13;;;;;;;1.04;50.73;99613.75;4488242;32;20164;-79
2022/01/12 06:48:34;;;;;;;36.33;14.63;;;;;;;1.67;49.71;99617.47;4487712;32;20092;-79
2022/01/12 06:51:02;;;;;;;36.15;13.15;;;;;;;1.83;48.67;99623.72;4488348;32;20076;-79
2022/01/12 06:53:29;;;;;;;37.35;14.45;;;;;;;2.43;45.92;99620.41;4489107;32;20148;-79
2022/01/12 06:55:56;;;;;;;36.20;13.57;;;;;;;2.52;45.73;99623.09;4490657;32;20430;-79
2022/01/12 06:58:23;;;;;;;;;;;;;;;2.63;45.10;99636.84;4490206;32;20144;-79
2022/01/12 07:00:50;;;;;;;42.28;13.65;;;;;;;2.05;46.40;99643.63;4490369;32;19948;-79
2022/01/12 07:03:17;;;;;;;38.85;14.15;;;;;;;1.55;48.18;99647.78;4489037;32;20153;-76
2022/01/12 07:05:44;;;;;;;35.00;13.38;;;;;;;0.78;51.35;99653.00;4473497;32;20144;-76
2022/01/12 07:08:11;;;;;;;;;;;;;;;1.28;50.68;99658.31;4487474;32;20108;-76
2022/01/12 07:10:38;;;;;;;34.42;12.37;;;;;;;1.41;50.89;99655.16;4487769;32;20021;-76
2022/01/12 07:13:05;;;;;;;;;;;;;;;0.92;53.03;99663.47;4487692;32;20132;-76
2022/01/12 07:15:31;;;;;;;26.73;9.52;;;;;;;0.18;56.47;99669.41;4486409;32;19979;-75
2022/01/12 07:18:03;;;;;;;29.17;10.90;;;;;;;-0.94;60.64;99662.19;4487425;32;20107;-76
2022/01/12 07:20:30;;;;;;;31.67;11.43;;;;;;;-1.09;62.70;99666.78;4487348;32;20106;-76
2022/01/12 07:22:57;;;;;;;30.17;9.98;;;;;;;-1.28;63.34;99661.16;4486825;32;20140;-76
2022/01/12 07:25:23;;;;;;;;;;;;;;;-2.06;66.36;99665.44;4487220;32;20457;-75
2022/01/12 07:27:51;;;;;;;31.02;10.80;;;;;;;-2.69;70.35;99665.81;4487696;32;20078;-76
2022/01/12 07:30:20;;;;;;;27.77;9.38;;;;;;;-2.48;69.52;99664.84;4486637;32;20096;-75
2022/01/12 07:32:47;;;;;;;31.95;11.35;;;;;;;-2.78;70.81;99662.94;4486147;32;20143;-75
2022/01/12 07:35:14;;;;;;;33.13;11.57;;;;;;;-3.07;71.88;99659.38;4487081;32;20096;-74
2022/01/12 07:37:41;;;;;;;28.35;10.77;;;;;;;-3.11;73.76;99665.09;4485662;32;20147;-75
2022/01/12 07:40:09;;;;;;;33.72;12.52;;;;;;;-2.85;72.19;99663.56;4473293;32;20518;-74
2022/01/12 07:42:36;;;;;;;36.10;12.10;;;;;;;-2.78;72.21;99669.66;4473233;32;20132;-74
2022/01/12 07:45:03;;;;;;;31.12;10.80;;;;;;;-2.92;72.99;99672.56;4486980;32;20100;-75
2022/01/12 07:47:31;;;;;;;30.60;10.95;;;;;;;-2.16;70.77;99671.84;4485533;32;20145;-74
2022/01/12 07:49:59;;;;;;;26.02;9.77;;;;;;;-1.83;68.16;99676.31;4485065;32;20106;-75
2022/01/12 07:52:27;;;;;;;36.67;13.00;;;;;;;-1.97;69.51;99678.41;4487182;32;20124;-73
2022/01/12 07:54:58;;;;;;;35.67;11.57;;;;;;;-1.80;68.09;99678.97;4473097;32;20123;-75
2022/01/12 07:57:26;;;;;;;29.63;9.75;;;;;;;-0.38;63.58;99689.09;4471969;32;20516;-73
2022/01/12 07:59:53;;;;;;;35.05;12.57;;;;;;;-0.49;63.91;99697.25;4483439;32;20561;-74
2022/01/12 08:02:20;;;;;;;30.45;11.20;;;;;;;0.29;60.59;99705.19;4484213;32;20140;-74
2022/01/12 08:04:47;;;;;;;36.40;12.80;;;;;;;-0.05;61.18;99695.87;4485140;32;20110;-74
2022/01/12 08:07:14;;;;;;;27.80;10.60;;;;;;;0.01;60.35;99698.59;4485277;32;20122;-74
2022/01/12 08:09:41;;;;;;;;;;;;;;;0.58;59.80;99700.81;4486173;32;20096;-75
2022/01/12 08:12:09;;;;;;;32.92;11.48;;;;;;;0.51;58.81;99704.03;4485823;32;20023;-75
2022/01/12 08:14:36;;;;;;;27.15;10.07;;;;;;;1.91;55.06;99698.50;4485880;32;20102;-74
2022/01/12 08:17:03;;;;;;;32.33;11.48;;;;;;;2.71;51.64;99696.47;4486781;32;20156;-74
2022/01/12 08:19:35;;;;;;;33.72;12.35;;;;;;;1.53;55.44;99708.81;4485938;32;20088;-75
2022/01/12 08:22:03;;;;;;;36.88;12.43;;;;;;;1.91;54.55;99706.13;4486687;32;20088;-75
2022/01/12 08:24:36;;;;;;;33.15;12.55;;;;;;;2.56;51.67;99706.44;4486099;31;20104;-75
2022/01/12 08:27:06;;;;;;;31.90;11.73;;;;;;;1.77;53.09;99708.44;4488239;32;20084;-75
2022/01/12 08:29:33;;;;;;;28.85;9.95;;;;;;;2.29;52.38;99705.13;4474102;32;20153;-75
2022/01/12 08:32:00;;;;;;;;;;;;;;;2.19;52.65;99705.81;4488848;32;20132;-75
2022/01/12 08:34:27;;;;;;;21.02;7.53;;;;;;;0.80;56.53;99700.50;4488959;32;19991;-75
2022/01/12 08:36:54;;;;;;;;;;;;;;;0.45;59.01;99714.91;4490074;32;20089;-75
2022/01/12 08:39:21;;;;;;;25.55;8.40;;;;;;;0.83;58.22;99715.81;4488172;32;19967;-74
2022/01/12 08:41:48;;;;;;;27.17;9.63;;;;;;;0.21;58.96;99711.75;4488313;32;20446;-74
2022/01/12 08:44:31;;;;;;;25.90;9.25;;;;;;;-0.32;61.81;99727.31;4475975;32;20091;-74
2022/01/12 08:46:58;;;;;;;24.52;8.63;;;;;;;-0.03;61.28;99717.94;4488128;32;20119;-74
2022/01/12 08:49:25;;;;;;;22.33;8.57;;;;;;;-0.24;62.32;99724.97;4473983;32;20145;-73
2022/01/12 08:51:52;;;;;;;27.02;8.85;;;;;;;0.40;60.34;99728.31;4488301;32;20153;-74
2022/01/12 08:54:19;;;;;;;28.55;10.68;;;;;;;-0.15;61.22;99726.91;4487918;32;20439;-74
2022/01/12 08:56:46;;;;;;;;;;;;;;;-0.37;61.98;99728.84;4488629;32;20796;-74
2022/01/12 08:59:13;;;;;;;29.17;9.50;;;;;;;1.44;55.61;99734.06;4488047;32;19986;-74
2022/01/12 09:01:41;;;;;;;24.12;9.05;;;;;;;0.34;58.62;99744.28;4487630;32;20088;-75
2022/01/12 09:04:08;;;;;;;28.65;9.90;;;;;;;0.75;57.25;99737.66;4486982;32;20089;-75
2022/01/12 09:06:36;;;;;;;26.65;9.40;;;;;;;0.66;57.46;99728.97;4488297;32;20166;-75
2022/01/12 09:09:04;;;;;;;23.67;8.73;;;;;;;-0.16;60.74;99731.12;4487827;32;20151;-75
2022/01/12 09:11:31;;;;;;;32.38;12.20;;;;;;;-0.62;63.10;99731.53;4474056;32;20166;-74
2022/01/12 09:13:58;;;;;;;32.85;11.00;;;;;;;-0.66;63.34;99730.56;4474216;32;20126;-75
2022/01/12 09:16:25;;;;;;;27.27;10.05;;;;;;;0.90;59.38;99734.59;4487894;32;20108;-75
2022/01/12 09:18:52;;;;;;;25.55;8.20;;;;;;;1.23;58.01;99731.06;4488063;32;20450;-75
2022/01/12 09:21:19;;;;;;;;;;;;;;;0.36;60.38;99731.59;4488233;32;20135;-75
2022/01/12 09:23:48;;;;;;;26.25;9.60;;;;;;;0.71;60.30;99735.84;4488143;32;20423;-75
2022/01/12 09:26:15;;;;;;;24.45;9.07;;;;;;;0.32;62.21;99728.16;4487972;32;20134;-75
2022/01/12 09:28:42;;;;;;;;;;;;;;;0.66;59.48;99724.75;4473969;32;20119;-75
2022/01/12 09:31:09;;;;;;;27.30;10.15;;;;;;;-0.14;63.31;99728.63;4488049;32;20083;-75
2022/01/12 09:33:37;;;;;;;31.90;9.32;;;;;;;-0.29;62.82;99724.00;4488064;32;20092;-75
2022/01/12 09:36:04;;;;;;;22.98;8.27;;;;;;;1.08;58.53;99732.47;4487738;32;20104;-75
2022/01/12 09:38:33;;;;;;;31.40;10.48;;;;;;;2.58;53.39;99735.34;4487446;32;20107;-75
2022/01/12 09:41:02;;;;;;;27.45;8.13;;;;;;;1.55;54.80;99726.66;4487984;32;20119;-76
2022/01/12 09:43:33;;;;;;;28.60;9.85;;;;;;;1.61;55.08;99734.44;4473826;32;20127;-75
2022/01/12 09:46:01;;;;;;;23.42;7.62;;;;;;;1.44;55.46;99740.00;4488195;32;20087;-75
2022/01/12 09:48:33;;;;;;;33.13;11.88;;;;;;;1.04;57.39;99745.06;4487780;32;20182;-76
2022/01/12 09:51:04;;;;;;;27.95;10.10;;;;;;;1.71;55.26;99746.50;4487683;32;20076;-75
2022/01/12 09:53:32;;;;;;;29.10;10.35;;;;;;;2.19;52.77;99745.69;4487953;32;20451;-75
2022/01/12 09:56:01;;;;;;;23.38;9.93;;;;;;;1.10;56.03;99742.66;4473856;32;20623;-75
2022/01/12 09:58:33;;;;;;;25.95;10.02;;;;;;;-0.27;62.56;99744.34;4473274;32;20495;-76
2022/01/12 10:01:03;;;;;;;24.80;9.75;;;;;;;0.47;61.02;99742.87;4487894;32;20076;-75
2022/01/12 10:03:32;;;;;;;28.27;9.75;;;;;;;-0.19;62.36;99740.34;4487561;32;20093;-76
2022/01/12 10:06:10;;;;;;;26.02;9.35;;;;;;;-0.33;62.99;99745.00;4487896;32;20100;-76
2022/01/12 10:08:37;;;;;;;24.92;8.52;;;;;;;-0.56;63.39;99749.44;4487734;32;20110;-75
2022/01/12 10:11:05;;;;;;;;;;;;;;;0.45;61.24;99752.16;4487426;32;20149;-76
2022/01/12 10:13:32;;;;;;;32.03;8.07;;;;;;;0.03;63.76;99741.75;4487405;32;20318;-76
2022/01/12 10:16:16;;;;;;;27.52;8.63;;;;;;;1.24;56.81;99737.88;4487702;32;20139;-76
2022/01/12 10:18:48;;;;;;;28.02;9.85;;;;;;;1.51;55.16;99737.62;4473262;32;20088;-76
2022/01/12 10:21:32;;;;;;;31.30;9.68;;;;;;;2.14;54.95;99739.69;4487533;32;20136;-75
2022/01/12 10:24:05;;;;;;;30.90;10.52;;;;;;;1.91;53.91;99737.53;4487816;32;20093;-76
2022/01/12 10:26:38;;;;;;;22.13;9.60;;;;;;;1.99;53.95;99736.00;4487229;32;20100;-76
2022/01/12 10:29:11;;;;;;;27.65;9.85;;;;;;;2.22;52.25;99730.47;4487685;32;20151;-76
2022/01/12 10:31:59;;;;;;;27.27;10.98;;;;;;;2.24;51.32;99734.78;4473124;32;20098;-75
2022/01/12 10:34:37;;;;;;;25.15;9.82;;;;;;;2.82;51.74;99743.34;4488236;32;20135;-76
2022/01/12 10:37:13;;;;;;;26.80;8.95;;;;;;;1.48;53.74;99747.69;4488318;32;20127;-76
2022/01/12 10:39:45;;;;;;;29.02;9.43;;;;;;;0.62;57.30;99743.25;4471744;32;20170;-76
2022/01/12 10:42:16;;;;;;;22.13;9.00;;;;;;;-0.13;60.40;99737.94;4485850;32;20095;-76
2022/01/12 10:44:45;;;;;;;25.52;10.30;;;;;;;0.65;57.69;99740.81;4485701;32;20450;-76
2022/01/12 10:47:17;;;;;;;26.65;10.15;;;;;;;1.14;56.30;99737.69;4470990;32;20184;-76
2022/01/12 10:49:56;;;;;;;21.20;8.02;;;;;;;0.59;58.20;99738.09;4484077;32;20100;-76
2022/01/12 10:52:34;;;;;;;28.77;11.00;;;;;;;0.84;55.98;99727.69;4485073;32;20439;-76
2022/01/12 10:55:08;;;;;;;19.67;6.70;;;;;;;0.75;56.28;99734.25;4485398;32;20160;-76
2022/01/12 10:57:39;;;;;;;33.42;11.88;;;;;;;1.54;54.35;99724.94;4472169;32;20108;-76
2022/01/12 11:00:21;;;;;;;34.58;13.35;;;;;;;1.93;54.04;99727.41;4487176;32;20144;-77
2022/01/12 11:02:59;;;;;;;22.95;8.82;;;;;;;2.05;52.58;99726.78;4487678;32;20429;-76
2022/01/12 11:05:28;;;;;;;31.90;10.80;;;;;;;1.69;53.99;99725.22;4487897;32;20115;-76
2022/01/12 11:07:55;;;;;;;27.87;9.32;;;;;;;0.33;59.38;99734.09;4473097;32;20152;-76
2022/01/12 11:10:23;;;;;;;34.42;15.00;;;;;;;0.77;57.61;99728.38;4487395;32;20092;-76
2022/01/12 11:12:51;;;;;;;31.92;11.68;;;;;;;0.76;58.12;99723.28;4487555;32;20080;-76
2022/01/12 11:15:20;;;;;;;33.92;12.70;;;;;;;2.43;52.64;99730.81;4487258;32;20149;-76
2022/01/12 11:17:49;;;;;;;27.15;9.73;;;;;;;3.10;50.75;99711.47;4473346;32;20105;-76
2022/01/12 11:20:18;;;;;;;28.80;10.95;;;;;;;2.11;51.80;99714.13;4487403;32;20103;-76
2022/01/12 11:22:57;;;;;;;33.67;12.30;;;;;;;2.94;50.91;99716.31;4487067;32;20682;-76
2022/01/12 11:25:28;;;;;;;30.50;11.35;;;;;;;2.77;51.20;99721.19;4487118;32;20155;-75
2022/01/12 11:28:08;;;;;;;31.33;11.25;;;;;;;1.65;54.19;99716.69;4486955;32;20096;-76
2022/01/12 11:30:36;;;;;;;31.08;12.23;;;;;;;1.38;54.66;99714.47;4487043;32;20501;-75
2022/01/12 11:33:07;;;;;;;26.30;9.80;;;;;;;2.15;53.12;99718.47;4473139;32;20495;-76
2022/01/12 11:35:38;;;;;;;29.92;11.38;;;;;;;1.69;53.81;99710.81;4486948;32;20115;-76
2022/01/12 11:38:06;;;;;;;32.17;12.23;;;;;;;1.14;55.36;99712.25;4487182;32;20152;-76
2022/01/12 11:40:40;;;;;;;31.60;12.35;;;;;;;2.16;52.99;99712.53;4487041;32;20139;-75
2022/01/12 11:43:19;;;;;;;22.55;8.80;;;;;;;1.72;53.08;99697.31;4486920;32;20159;-75
2022/01/12 11:45:59;;;;;;;23.58;9.30;;;;;;;1.63;54.17;99699.69;4487183;32;20145;-75
2022/01/12 11:48:31;;;;;;;22.35;8.60;;;;;;;-0.19;60.63;99703.13;4487076;32;20149;-75
2022/01/12 11:50:58;;;;;;;22.80;7.93;;;;;;;0.13;58.63;99693.81;4486695;32;20085;-75
2022/01/12 11:53:24;;;;;;;;;;;;;;;1.20;56.13;99697.97;4487404;32;20119;-76
2022/01/12 11:55:52;;;;;;;29.58;10.48;;;;;;;1.54;55.39;99694.41;4486631;32;20040;-76
2022/01/12 11:58:19;;;;;;;26.25;10.80;;;;;;;1.13;56.72;99694.44;4486831;32;20159;-76
2022/01/12 12:00:46;;;;;;;29.40;11.50;;;;;;;0.88;57.60;99693.06;4486532;32;20163;-76
2022/01/12 12:03:16;;;;;;;36.15;11.70;;;;;;;1.05;55.76;99691.72;4486695;32;20131;-76
2022/01/12 12:05:44;;;;;;;33.47;11.93;;;;;;;1.56;55.32;99702.94;4486987;32;20100;-76
2022/01/12 12:08:23;;;;;;;25.10;8.50;;;;;;;2.62;51.84;99711.59;4486946;32;20093;-76
2022/01/12 12:10:51;;;;;;;24.90;9.40;;;;;;;2.29;51.71;99717.00;4487166;32;20097;-76
2022/01/12 12:13:20;;;;;;;31.65;10.82;;;;;;;2.59;51.15;99714.97;4488375;32;20143;-77
2022/01/12 12:15:47;;;;;;;30.92;12.63;;;;;;;1.41;55.38;99708.59;4488376;32;20110;-75
2022/01/12 12:18:18;;;;;;;31.35;11.23;;;;;;;2.63;52.53;99705.66;4486423;32;20164;-76
2022/01/12 12:20:45;;;;;;;28.85;10.35;;;;;;;2.01;54.09;99695.28;4486694;32;20152;-76
2022/01/12 12:23:12;;;;;;;27.40;10.43;;;;;;;0.75;57.19;99693.59;4486674;32;20076;-76
2022/01/12 12:25:39;;;;;;;32.58;10.55;;;;;;;0.17;59.84;99705.75;4486127;32;20100;-76
2022/01/12 12:28:08;;;;;;;;;;;;;;;0.55;58.97;99705.84;4472736;32;20613;-75
2022/01/12 12:30:38;;;;;;;30.23;11.07;;;;;;;2.20;53.57;99707.50;4486598;32;20096;-76
2022/01/12 12:33:13;;;;;;;27.13;10.18;;;;;;;1.40;55.26;99694.16;4486436;32;20159;-75
2022/01/12 12:35:42;;;;;;;24.25;10.05;;;;;;;1.26;55.62;99693.84;4486510;32;20106;-75
2022/01/12 12:38:12;;;;;;;29.67;12.02;;;;;;;0.68;57.24;99710.38;4486034;32;20110;-75
2022/01/12 12:40:41;;;;;;;18.45;8.55;;;;;;;1.22;56.16;99704.78;4486534;32;20164;-76
2022/01/12 12:43:18;;;;;;;32.42;13.20;;;;;;;1.65;53.48;99701.44;4486257;32;20124;-75
2022/01/12 12:45:48;;;;;;;;;;;;;;;1.88;54.51;99704.41;4486289;32;20430;-75
2022/01/12 12:48:19;;;;;;;18.60;7.30;;;;;;;1.85;53.69;99703.50;4486259;32;20015;-75
2022/01/12 12:50:53;;;;;;;24.42;9.23;;;;;;;1.38;55.54;99696.66;4486170;32;20084;-75
2022/01/12 12:53:27;;;;;;;33.47;12.18;;;;;;;1.30;55.84;99685.47;4485744;32;20155;-76
2022/01/12 12:55:54;;;;;;;30.02;10.73;;;;;;;0.92;57.72;99694.81;4472200;32;20164;-76
2022/01/12 12:58:23;;;;;;;;;;;;;;;1.91;54.00;99696.81;4486361;32;20138;-75
2022/01/12 13:00:50;;;;;;;25.08;10.23;;;;;;;2.13;53.88;99709.94;4485946;32;19986;-76
2022/01/12 13:03:18;;;;;;;27.25;10.90;;;;;;;2.18;53.43;99695.59;4486180;32;20426;-76
2022/01/12 13:05:45;;;;;;;23.45;8.90;;;;;;;1.49;55.93;99696.87;4486372;32;20112;-75
2022/01/12 13:08:12;;;;;;;;;;;;;;;1.27;55.80;99687.06;4486757;32;20130;-75